Time;durP1;ratioP1;P1;durP2;ratioP2;P2;SDS_P1;SDS_P2;PMS_P1;PMS_P2;Temp;Humidity;BMP_temperature;BMP_pressure;BME280_temperature;BME280_humidity;BME280_pressure;Samples;Min_cycle;Max_cycle;Signal;HPM_P1;HPM_P2
2021/05/22 00:02:52;;;;;;;6.60;1.52;;;;;;;18.49;48.38;100022.47;5033223;28;20108;-79
2021/05/22 00:05:57;;;;;;;7.70;1.95;;;;;;;18.38;48.55;100014.81;5032141;28;20052;-80
2021/05/22 00:09:02;;;;;;;6.47;2.22;;;;;;;18.40;48.51;100010.03;5034039;28;20040;-80
2021/05/22 00:12:07;;;;;;;7.85;1.77;;;;;;;18.40;48.56;99999.16;5033711;28;20057;-79
2021/05/22 00:15:15;;;;;;;5.90;2.10;;;;;;;18.25;48.30;99997.53;5032945;28;20053;-80
2021/05/22 00:18:19;;;;;;;8.57;2.10;;;;;;;18.29;48.24;99980.66;5033709;28;20052;-80
2021/05/22 00:21:24;;;;;;;11.85;3.55;;;;;;;18.17;49.20;99984.94;5033677;28;20053;-80
2021/05/22 00:24:28;;;;;;;7.60;2.25;;;;;;;18.13;49.77;99979.03;5033661;28;20064;-79
2021/05/22 00:27:42;;;;;;;6.53;2.22;;;;;;;17.99;50.31;99998.09;5032844;28;20057;-80
2021/05/22 00:30:47;;;;;;;9.68;1.92;;;;;;;17.83;51.27;100001.00;5033546;28;20052;-79
2021/05/22 00:33:51;;;;;;;8.30;2.47;;;;;;;17.79;51.31;99997.84;5033443;28;20056;-80
2021/05/22 00:36:56;;;;;;;6.82;2.40;;;;;;;17.74;52.51;99994.84;5034470;28;20422;-80
2021/05/22 00:40:01;;;;;;;9.75;2.65;;;;;;;17.59;52.89;99994.03;5037288;28;20056;-80
2021/05/22 00:43:05;;;;;;;6.80;2.00;;;;;;;17.44;53.42;99977.72;5036859;28;20056;-80
2021/05/22 00:46:10;;;;;;;7.45;2.33;;;;;;;17.35;53.30;99992.41;5037148;28;20060;-80
2021/05/22 00:49:14;;;;;;;9.95;2.47;;;;;;;17.37;54.17;99968.66;5037053;28;20052;-81
2021/05/22 00:52:18;;;;;;;9.38;1.92;;;;;;;17.26;54.71;99988.09;5037006;28;20420;-80
2021/05/22 00:55:23;;;;;;;8.38;2.35;;;;;;;17.24;54.96;99990.16;5036946;28;20049;-79
2021/05/22 00:58:29;;;;;;;6.47;1.75;;;;;;;17.18;55.02;99981.94;5036350;28;20060;-80
2021/05/22 01:01:33;;;;;;;6.18;2.08;;;;;;;17.24;55.19;99984.72;5036905;28;20045;-80
2021/05/22 01:04:37;;;;;;;7.43;2.42;;;;;;;17.25;55.00;99986.41;5036012;28;20049;-80
2021/05/22 01:07:44;;;;;;;8.80;2.10;;;;;;;17.30;54.84;99985.84;5036108;28;20393;-80
2021/05/22 01:11:04;;;;;;;8.50;2.47;;;;;;;17.28;55.02;99979.78;5036707;28;20503;-80
2021/05/22 01:14:13;;;;;;;9.60;2.17;;;;;;;17.32;54.88;99976.50;5036682;28;20124;-80
2021/05/22 01:17:18;;;;;;;8.48;2.00;;;;;;;17.27;55.12;99962.66;5036625;28;20044;-80
2021/05/22 01:20:40;;;;;;;8.43;2.00;;;;;;;17.26;54.84;99952.81;5036560;28;20052;-81
2021/05/22 01:23:56;;;;;;;8.25;2.00;;;;;;;17.24;55.48;99924.19;5036477;28;20057;-79
2021/05/22 01:27:01;;;;;;;8.73;2.25;;;;;;;17.11;55.72;99933.00;5036375;28;20052;-79
2021/05/22 01:30:06;;;;;;;7.57;2.17;;;;;;;17.08;55.04;99938.81;5036338;28;20496;-79
2021/05/22 01:33:10;;;;;;;8.25;2.30;;;;;;;17.14;54.60;99953.47;5036242;28;20049;-80
2021/05/22 01:36:24;;;;;;;;;;;;;;;17.12;54.36;99940.09;5035737;28;20048;-80
2021/05/22 01:39:29;;;;;;;6.20;2.30;;;;;;;17.03;55.06;99940.38;5035900;28;19917;-79
2021/05/22 01:42:34;;;;;;;7.78;2.50;;;;;;;16.90;56.20;99963.56;5036151;28;20044;-80
2021/05/22 01:45:43;;;;;;;9.40;2.47;;;;;;;16.84;55.90;99952.59;5036104;28;20048;-79
2021/05/22 01:48:48;;;;;;;6.65;2.10;;;;;;;16.84;56.09;99960.72;5035731;28;20082;-80
2021/05/22 01:51:54;;;;;;;9.82;2.40;;;;;;;16.83;55.92;99951.78;5035674;28;20054;-79
2021/05/22 01:55:02;;;;;;;6.95;2.28;;;;;;;16.87;55.83;99949.53;5036124;28;20057;-79
2021/05/22 01:58:10;;;;;;;5.13;1.83;;;;;;;16.82;56.49;99949.22;5036081;28;20105;-80
2021/05/22 02:01:15;;;;;;;5.95;2.13;;;;;;;16.86;56.15;99937.81;5035271;28;20053;-80
2021/05/22 02:04:23;;;;;;;7.32;3.20;;;;;;;16.99;56.23;99933.63;5035351;28;20053;-80
2021/05/22 02:07:30;;;;;;;8.27;2.50;;;;;;;16.77;56.34;99932.69;5035686;28;20047;-79
2021/05/22 02:10:35;;;;;;;6.75;2.60;;;;;;;16.70;56.52;99912.75;5035627;28;20068;-81
2021/05/22 02:13:41;;;;;;;8.82;2.42;;;;;;;16.70;55.82;99919.03;5035528;28;20056;-80
2021/05/22 02:16:53;;;;;;;7.25;2.45;;;;;;;16.81;55.32;99915.84;5035738;28;20593;-78
2021/05/22 02:19:58;;;;;;;10.80;2.38;;;;;;;16.72;55.87;99908.84;5035429;28;20056;-79
2021/05/22 02:23:05;;;;;;;6.22;1.98;;;;;;;16.56;56.58;99913.59;5035311;28;20044;-79
2021/05/22 02:26:10;;;;;;;9.30;2.63;;;;;;;16.58;56.20;99901.53;5035234;28;20041;-80
2021/05/22 02:29:20;;;;;;;9.85;2.33;;;;;;;16.57;56.17;99901.72;5035270;28;20045;-80
2021/05/22 02:32:26;;;;;;;9.50;2.30;;;;;;;16.59;55.51;99900.50;5035170;28;20053;-80
2021/05/22 02:35:33;;;;;;;8.02;2.17;;;;;;;16.67;54.99;99891.44;5034357;28;20060;-79
2021/05/22 02:38:49;;;;;;;8.07;2.28;;;;;;;16.66;53.72;99900.63;5035055;28;20057;-80
2021/05/22 02:41:55;;;;;;;9.68;2.20;;;;;;;16.80;53.54;99897.06;5034988;28;20048;-80
2021/05/22 02:45:01;;;;;;;8.07;2.30;;;;;;;16.86;53.40;99896.34;5034261;28;20060;-80
2021/05/22 02:48:10;;;;;;;7.88;2.00;;;;;;;16.92;53.97;99907.28;5034105;28;20503;-81
2021/05/22 02:51:17;;;;;;;6.10;2.17;;;;;;;16.95;55.28;99897.09;5034810;28;20048;-80
2021/05/22 02:54:23;;;;;;;12.18;2.55;;;;;;;16.79;56.72;99925.19;5033912;28;20049;-80
2021/05/22 02:57:33;;;;;;;10.70;3.00;;;;;;;16.61;57.11;99919.31;5034685;28;20056;-79
2021/05/22 03:00:38;;;;;;;6.40;2.63;;;;;;;16.58;57.61;99944.06;5034218;28;20048;-80
2021/05/22 03:03:45;;;;;;;10.00;2.38;;;;;;;16.46;58.13;99948.19;5034466;28;20048;-79
2021/05/22 03:06:49;;;;;;;7.22;2.38;;;;;;;16.46;58.38;99959.88;5034137;28;20056;-80
2021/05/22 03:09:54;;;;;;;8.13;2.08;;;;;;;16.61;59.37;99957.25;5033293;28;20527;-79
2021/05/22 03:12:58;;;;;;;8.40;2.53;;;;;;;16.56;59.53;99965.06;5034318;28;20396;-79
2021/05/22 03:16:02;;;;;;;9.68;2.63;;;;;;;16.52;60.06;99956.44;5034383;28;20049;-79
2021/05/22 03:19:07;;;;;;;4.32;2.13;;;;;;;16.56;59.45;99946.09;5034068;28;20393;-80
2021/05/22 03:22:11;;;;;;;10.80;2.13;;;;;;;16.56;60.00;99946.09;5033265;28;20057;-79
2021/05/22 03:25:16;;;;;;;6.72;2.40;;;;;;;16.78;58.87;99937.09;5034254;28;20048;-80
2021/05/22 03:28:21;;;;;;;7.70;2.20;;;;;;;16.70;59.08;99945.28;5034449;28;20044;-80
2021/05/22 03:31:25;;;;;;;11.13;2.90;;;;;;;16.61;59.66;99965.38;5033149;28;20120;-79
2021/05/22 03:34:30;;;;;;;6.97;2.53;;;;;;;16.50;60.18;99960.34;5032665;28;20057;-80
2021/05/22 03:37:34;;;;;;;6.70;2.25;;;;;;;16.56;60.89;99975.91;5033812;28;20048;-80
2021/05/22 03:40:38;;;;;;;6.28;1.85;;;;;;;16.55;60.77;99979.63;5034394;28;20053;-80
2021/05/22 03:43:43;;;;;;;6.15;2.45;;;;;;;16.50;60.99;99985.56;5033857;28;20060;-80
2021/05/22 03:46:47;;;;;;;9.00;2.40;;;;;;;16.46;60.62;99991.53;5033705;28;20057;-79
2021/05/22 03:49:51;;;;;;;8.93;2.10;;;;;;;16.51;61.16;99968.31;5033941;28;20068;-79
2021/05/22 03:52:56;;;;;;;8.23;2.47;;;;;;;16.77;57.38;99971.47;5021494;28;20405;-80
2021/05/22 03:56:00;;;;;;;4.43;1.65;;;;;;;16.52;59.50;99982.69;5033610;28;20053;-80
2021/05/22 03:59:05;;;;;;;7.28;2.30;;;;;;;16.57;58.50;99996.53;5034142;28;20064;-80
2021/05/22 04:02:09;;;;;;;6.47;2.13;;;;;;;16.69;56.93;99987.00;5033866;28;20048;-79
2021/05/22 04:05:13;;;;;;;8.15;1.98;;;;;;;16.72;57.19;100006.41;5033836;28;20405;-80
2021/05/22 04:08:18;;;;;;;6.50;1.80;;;;;;;16.79;57.37;99998.38;5033783;28;20057;-79
2021/05/22 04:11:22;;;;;;;5.72;1.80;;;;;;;16.85;56.91;100013.94;5032792;28;20053;-80
2021/05/22 04:14:27;;;;;;;5.60;1.92;;;;;;;16.97;57.35;100017.03;5035944;28;20065;-80
2021/05/22 04:17:31;;;;;;;12.02;1.77;;;;;;;16.91;57.58;100034.91;5017935;28;20053;-80
2021/05/22 04:20:36;;;;;;;7.40;1.90;;;;;;;16.79;58.11;100039.06;5017980;28;20572;-79
2021/05/22 04:23:41;;;;;;;8.00;2.13;;;;;;;16.66;58.22;100036.97;5035076;28;20076;-80
2021/05/22 04:26:45;;;;;;;9.18;1.63;;;;;;;16.81;58.61;100028.91;5037555;28;20052;-80
2021/05/22 04:29:49;;;;;;;7.82;1.95;;;;;;;16.76;58.49;100036.72;5037535;28;20048;-80
2021/05/22 04:32:54;;;;;;;8.50;1.95;;;;;;;16.76;59.25;100026.69;5036809;28;20065;-77
2021/05/22 04:35:58;;;;;;;7.88;2.10;;;;;;;16.79;59.09;100020.91;5037034;28;20053;-79
2021/05/22 04:39:04;;;;;;;7.65;2.08;;;;;;;16.88;58.69;100022.56;5037056;28;20049;-78
2021/05/22 04:42:08;;;;;;;12.13;3.05;;;;;;;16.96;58.65;100012.66;5037204;28;20040;-79
2021/05/22 04:45:13;;;;;;;7.88;2.20;;;;;;;16.93;58.11;100022.00;5036441;28;20404;-79
2021/05/22 04:48:17;;;;;;;10.95;2.15;;;;;;;16.98;57.26;100014.16;5036981;28;20044;-78
2021/05/22 04:51:23;;;;;;;6.88;1.75;;;;;;;17.10;56.67;100009.97;5036250;28;20049;-76
2021/05/22 04:54:28;;;;;;;11.93;2.10;;;;;;;17.09;56.99;100029.97;5036077;28;20064;-78
2021/05/22 04:57:32;;;;;;;5.68;1.70;;;;;;;17.24;56.84;100038.13;5036155;28;20049;-79
2021/05/22 05:00:36;;;;;;;7.25;2.05;;;;;;;17.40;57.29;100040.69;5036835;28;20052;-77
2021/05/22 05:03:41;;;;;;;10.63;2.40;;;;;;;17.65;57.70;100046.72;5036591;28;20056;-79
2021/05/22 05:06:45;;;;;;;7.25;2.40;;;;;;;17.54;57.46;100048.88;5036410;28;20049;-78
2021/05/22 05:09:51;;;;;;;5.38;1.95;;;;;;;17.38;57.92;100050.91;5036934;28;20052;-77
2021/05/22 05:12:56;;;;;;;8.00;2.83;;;;;;;17.32;58.55;100043.47;5036607;28;20053;-78
2021/05/22 05:16:01;;;;;;;12.88;3.33;;;;;;;17.32;57.98;100040.78;5035784;28;20072;-77
2021/05/22 05:19:07;;;;;;;8.45;2.80;;;;;;;17.33;58.48;100032.44;5036036;28;20052;-78
2021/05/22 05:22:11;;;;;;;8.73;2.47;;;;;;;17.45;58.30;100039.09;5036064;28;20049;-77
2021/05/22 05:25:15;;;;;;;9.35;2.70;;;;;;;17.64;57.23;100045.03;5036280;28;20421;-79
2021/05/22 05:28:21;;;;;;;11.23;2.75;;;;;;;18.02;56.18;100041.97;5036407;28;20053;-78
2021/05/22 05:31:25;;;;;;;9.85;2.67;;;;;;;18.23;55.65;100038.47;5035623;28;20053;-81
2021/05/22 05:34:29;;;;;;;5.97;2.15;;;;;;;18.52;55.26;100037.56;5035221;28;20052;-79
2021/05/22 05:37:34;;;;;;;6.32;1.95;;;;;;;18.78;53.06;100044.13;5033302;28;20048;-77
2021/05/22 05:40:39;;;;;;;9.10;2.42;;;;;;;19.14;52.24;100037.72;5032666;28;20523;-79
2021/05/22 05:43:43;;;;;;;8.90;2.15;;;;;;;19.24;52.32;100035.50;5034148;28;20053;-79
2021/05/22 05:46:47;;;;;;;6.22;1.80;;;;;;;19.24;51.06;100033.63;5033874;28;20056;-79
2021/05/22 05:49:52;;;;;;;8.05;1.77;;;;;;;19.42;50.12;100041.31;5036234;28;20048;-79
2021/05/22 05:52:57;;;;;;;5.78;1.48;;;;;;;19.88;48.49;100052.47;4981495;28;20049;-79
2021/05/22 05:56:02;;;;;;;7.20;1.52;;;;;;;20.97;44.84;100040.44;5035399;28;20052;-78
2021/05/22 05:59:07;;;;;;;6.13;1.02;;;;;;;21.43;41.82;100026.81;5035539;28;20060;-79
2021/05/22 06:02:11;;;;;;;7.38;1.40;;;;;;;21.08;42.61;100046.19;5035147;28;20048;-80
2021/05/22 06:05:16;;;;;;;5.50;1.48;;;;;;;20.59;43.33;100051.13;5034992;28;20057;-81
2021/05/22 06:08:21;;;;;;;7.10;1.85;;;;;;;20.48;44.32;100055.28;5031982;28;20060;-78
2021/05/22 06:11:30;;;;;;;9.65;1.77;;;;;;;20.42;44.46;100063.44;5033139;28;20048;-77
2021/05/22 06:14:37;;;;;;;8.27;1.52;;;;;;;20.27;44.46;100057.31;5039090;28;20068;-77
2021/05/22 06:17:43;;;;;;;6.30;1.45;;;;;;;20.26;45.09;100067.38;5028561;28;20056;-76
2021/05/22 06:20:47;;;;;;;15.93;1.52;;;;;;;20.04;45.69;100069.34;5030733;28;20064;-79
2021/05/22 06:23:52;;;;;;;6.15;1.75;;;;;;;20.09;46.24;100076.91;5032884;28;20053;-79
2021/05/22 06:26:57;;;;;;;6.47;1.73;;;;;;;19.97;45.92;100073.91;5032220;28;20396;-77
2021/05/22 06:30:03;;;;;;;6.78;1.40;;;;;;;20.08;46.09;100072.50;5035139;28;20504;-79
2021/05/22 06:33:07;;;;;;;4.38;1.20;;;;;;;20.12;46.25;100077.34;5020575;28;20052;-75
2021/05/22 06:36:12;;;;;;;6.90;1.73;;;;;;;20.10;48.21;100073.97;5030063;28;20040;-78
2021/05/22 06:39:16;;;;;;;8.15;2.00;;;;;;;20.24;49.91;100083.09;5029931;28;20056;-74
2021/05/22 06:42:20;;;;;;;6.00;1.60;;;;;;;20.37;50.05;100093.22;5050797;28;20048;-75
2021/05/22 06:45:27;;;;;;;11.88;1.85;;;;;;;20.42;50.92;100098.88;5042197;28;20053;-84
2021/05/22 06:48:33;;;;;;;8.43;1.73;;;;;;;20.47;50.98;100090.91;5032235;28;20072;-85
2021/05/22 06:51:37;;;;;;;7.22;1.77;;;;;;;20.34;51.22;100093.63;5034006;28;20064;-77
2021/05/22 06:54:42;;;;;;;5.38;1.50;;;;;;;20.26;52.71;100082.88;5032428;28;20072;-77
2021/05/22 06:57:47;;;;;;;6.28;1.67;;;;;;;19.90;54.52;100094.00;5032575;28;20048;-77
2021/05/22 07:00:51;;;;;;;7.10;2.15;;;;;;;19.82;53.55;100103.19;5032471;28;20068;-77
2021/05/22 07:03:56;;;;;;;7.82;1.40;;;;;;;19.78;52.47;100101.88;5032614;28;20128;-77
2021/05/22 07:07:00;;;;;;;7.05;1.58;;;;;;;19.83;51.55;100118.47;5032258;28;20064;-76
2021/05/22 07:10:06;;;;;;;8.63;2.10;;;;;;;19.85;51.56;100118.28;5034746;28;20052;-76
2021/05/22 07:13:11;;;;;;;6.72;2.10;;;;;;;19.73;52.77;100125.31;5033494;28;20053;-76
2021/05/22 07:16:15;;;;;;;8.88;2.47;;;;;;;19.47;58.00;100134.13;5034656;28;20056;-76
2021/05/22 07:19:20;;;;;;;9.73;2.30;;;;;;;19.37;58.43;100141.78;5034350;28;20484;-76
2021/05/22 07:22:24;;;;;;;11.00;2.40;;;;;;;19.44;58.70;100131.81;5034248;28;20061;-76
2021/05/22 07:25:29;;;;;;;27.10;19.42;;;;;;;19.57;57.86;100145.53;5034203;28;20052;-76
2021/05/22 07:28:34;;;;;;;13.55;6.72;;;;;;;19.89;56.49;100153.09;5033886;28;20053;-76
2021/05/22 07:31:43;;;;;;;15.43;8.80;;;;;;;19.99;55.17;100171.81;5033808;28;20060;-76
2021/05/22 07:34:48;;;;;;;8.60;2.70;;;;;;;19.72;54.27;100165.34;5034120;28;20056;-76
2021/05/22 07:37:52;;;;;;;7.07;1.90;;;;;;;19.74;52.76;100163.25;5034105;28;20052;-77
2021/05/22 07:40:57;;;;;;;11.38;2.40;;;;;;;19.71;55.39;100155.47;5033961;28;20052;-76
2021/05/22 07:44:01;;;;;;;9.63;2.00;;;;;;;19.87;54.67;100147.00;5033445;28;20504;-76
2021/05/22 07:47:05;;;;;;;10.43;2.38;;;;;;;19.93;53.80;100138.03;5033926;28;20057;-90
2021/05/22 07:50:11;;;;;;;12.32;2.53;;;;;;;20.16;53.33;100140.47;5033830;28;20056;-76
2021/05/22 07:53:15;;;;;;;8.85;2.20;;;;;;;20.27;53.96;100131.72;5033822;28;20061;-76
2021/05/22 07:56:20;;;;;;;10.88;2.35;;;;;;;20.71;53.39;100120.38;5033870;28;20109;-76
2021/05/22 07:59:25;;;;;;;6.78;2.28;;;;;;;21.10;51.68;100145.06;5033507;28;20068;-76
2021/05/22 08:02:29;;;;;;;10.75;2.60;;;;;;;21.59;50.27;100141.09;5033760;28;20045;-77
2021/05/22 08:05:33;;;;;;;9.57;2.55;;;;;;;22.23;49.39;100127.53;5033807;28;20056;-76
2021/05/22 08:08:38;;;;;;;10.52;2.05;;;;;;;23.42;45.88;100128.63;5033694;28;20052;-76
2021/05/22 08:11:42;;;;;;;13.63;2.50;;;;;;;24.67;42.75;100126.22;5033673;28;20049;-77
2021/05/22 08:14:49;;;;;;;9.00;2.05;;;;;;;28.45;35.71;100117.69;5044236;28;20053;-77
2021/05/22 08:17:54;;;;;;;12.43;2.00;;;;;;;29.83;32.65;100141.88;5033634;28;20048;-77
2021/05/22 08:20:58;;;;;;;10.43;2.35;;;;;;;29.96;31.75;100155.25;5033761;28;20064;-77
2021/05/22 08:24:03;;;;;;;6.03;1.50;;;;;;;29.37;33.44;100153.63;5033642;28;20080;-77
2021/05/22 08:27:08;;;;;;;8.25;1.98;;;;;;;28.93;35.15;100147.34;5033626;28;20052;-78
2021/05/22 08:30:13;;;;;;;9.48;2.15;;;;;;;28.56;33.77;100138.00;5028721;28;20069;-77
2021/05/22 08:33:17;;;;;;;6.13;1.70;;;;;;;28.50;33.58;100145.38;5013360;28;20053;-76
2021/05/22 08:36:21;;;;;;;7.97;1.90;;;;;;;28.14;32.73;100146.84;5032666;28;20060;-78
2021/05/22 08:39:26;;;;;;;4.00;1.17;;;;;;;28.36;30.82;100144.94;5033027;28;20044;-76
2021/05/22 08:42:32;;;;;;;6.47;1.35;;;;;;;27.47;28.86;100143.25;5028337;28;20048;-80
2021/05/22 08:45:37;;;;;;;4.50;1.10;;;;;;;27.15;29.64;100147.63;5041828;28;20065;-82
2021/05/22 08:48:43;;;;;;;26.15;18.60;;;;;;;26.70;31.14;100149.44;5031997;28;20056;-82
2021/05/22 08:51:47;;;;;;;19.58;17.50;;;;;;;26.19;31.55;100142.88;5033099;28;20049;-80
2021/05/22 08:54:51;;;;;;;6.90;4.20;;;;;;;25.48;32.90;100150.47;5032642;28;20050;-81
2021/05/22 08:57:55;;;;;;;5.53;1.02;;;;;;;25.33;33.13;100145.34;5033742;28;20052;-81
2021/05/22 09:01:01;;;;;;;3.47;0.98;;;;;;;25.60;31.96;100124.63;5027481;28;21208;-76
2021/05/22 09:04:06;;;;;;;3.38;1.08;;;;;;;26.06;32.28;100133.97;5034840;28;20056;-75
2021/05/22 09:07:11;;;;;;;5.80;1.35;;;;;;;26.78;31.01;100147.19;5029932;28;20057;-80
2021/05/22 09:10:24;;;;;;;4.10;1.33;;;;;;;26.51;30.82;100142.44;5016124;28;20045;-79
2021/05/22 09:13:30;;;;;;;4.18;1.10;;;;;;;26.25;31.51;100147.38;5033429;28;20535;-76
2021/05/22 09:16:35;;;;;;;7.75;1.10;;;;;;;25.82;31.98;100130.41;5035760;28;20049;-78
2021/05/22 09:19:41;;;;;;;6.63;1.52;;;;;;;25.66;35.98;100134.69;5035787;28;20508;-79
2021/05/22 09:22:55;;;;;;;7.53;1.67;;;;;;;24.56;39.08;100130.63;5033617;28;20049;-74
2021/05/22 09:26:02;;;;;;;14.75;2.50;;;;;;;24.13;40.64;100138.09;5031814;28;20053;-74
2021/05/22 09:29:06;;;;;;;9.27;2.25;;;;;;;24.07;41.56;100138.13;5031835;28;20045;-74
2021/05/22 09:32:13;;;;;;;8.13;1.92;;;;;;;23.75;41.81;100140.16;5032017;28;20072;-74
2021/05/22 09:35:18;;;;;;;7.30;1.67;;;;;;;23.36;41.70;100138.56;5032573;28;20049;-74
2021/05/22 09:38:36;;;;;;;8.10;2.05;;;;;;;23.09;41.95;100145.25;5033935;28;20113;-74
2021/05/22 09:41:40;;;;;;;4.78;1.50;;;;;;;23.28;41.94;100155.25;5036152;28;20049;-74
2021/05/22 09:44:45;;;;;;;9.13;2.20;;;;;;;23.27;41.25;100164.53;5035594;28;20049;-75
2021/05/22 09:47:50;;;;;;;10.30;2.45;;;;;;;23.45;42.18;100180.22;5035988;28;20049;-74
2021/05/22 09:51:02;;;;;;;7.68;2.05;;;;;;;23.47;42.58;100167.16;5035721;28;20068;-74
2021/05/22 09:54:06;;;;;;;8.05;2.08;;;;;;;23.54;41.96;100160.56;5034613;28;20179;-77
2021/05/22 09:57:35;;;;;;;3.95;1.20;;;;;;;23.66;41.57;100164.25;5028449;28;20396;-76
2021/05/22 10:00:39;;;;;;;5.30;1.15;;;;;;;23.84;41.89;100169.78;5042063;28;20044;-77
2021/05/22 10:03:44;;;;;;;4.53;1.33;;;;;;;24.02;41.40;100168.97;5035620;28;20397;-78
2021/05/22 10:06:49;;;;;;;6.18;1.55;;;;;;;24.14;40.73;100164.47;5018252;28;20057;-79
2021/05/22 10:09:57;;;;;;;5.13;1.70;;;;;;;24.31;40.54;100164.69;5014550;28;20053;-79
2021/05/22 10:13:02;;;;;;;7.57;1.70;;;;;;;24.68;40.37;100176.50;5015536;28;20053;-77
2021/05/22 10:16:07;;;;;;;6.90;1.50;;;;;;;24.78;39.65;100166.69;5015708;28;20397;-80
2021/05/22 10:19:11;;;;;;;8.10;1.30;;;;;;;24.90;38.80;100164.81;5018582;28;20056;-76
2021/05/22 10:22:18;;;;;;;4.50;1.30;;;;;;;25.03;38.32;100161.06;5034985;28;20056;-80
2021/05/22 10:25:22;;;;;;;4.20;1.20;;;;;;;25.03;37.97;100153.66;5017665;28;20495;-80
2021/05/22 10:28:27;;;;;;;21.58;17.90;;;;;;;25.50;39.14;100162.91;5027294;28;20052;-76
2021/05/22 10:31:40;;;;;;;5.88;1.85;;;;;;;25.84;38.53;100161.25;5034637;28;20049;-75
2021/05/22 10:34:44;;;;;;;6.22;2.20;;;;;;;26.01;37.99;100159.47;5031318;28;20060;-75
2021/05/22 10:37:49;;;;;;;6.57;2.15;;;;;;;26.16;37.50;100167.25;5030907;28;20060;-75
2021/05/22 10:40:55;;;;;;;8.82;1.48;;;;;;;26.05;36.96;100170.81;5029775;28;20064;-76
2021/05/22 10:44:01;;;;;;;6.10;1.35;;;;;;;25.88;36.62;100172.59;5030655;28;20057;-76
2021/05/22 10:47:17;;;;;;;5.93;1.38;;;;;;;25.08;37.45;100170.25;5030841;28;20052;-75
2021/05/22 10:50:44;;;;;;;6.13;1.60;;;;;;;24.51;38.61;100173.53;5014953;28;20052;-75
2021/05/22 10:53:56;;;;;;;4.60;1.27;;;;;;;24.75;37.79;100174.50;5014959;28;20069;-75
2021/05/22 10:57:07;;;;;;;4.63;1.30;;;;;;;24.90;36.76;100167.56;5031819;28;20057;-77
2021/05/22 11:00:16;;;;;;;4.40;1.20;;;;;;;24.92;36.61;100167.31;5032835;28;20053;-74
2021/05/22 11:03:20;;;;;;;7.22;1.30;;;;;;;25.37;36.77;100167.72;5034620;28;20049;-77
2021/05/22 11:06:44;;;;;;;66.63;59.58;;;;;;;25.43;35.31;100156.63;5033740;28;20057;-75
2021/05/22 11:09:51;;;;;;;12.80;10.07;;;;;;;25.46;36.02;100155.34;5022194;28;20050;-74
2021/05/22 11:12:55;;;;;;;8.20;2.80;;;;;;;25.62;35.60;100157.41;5033794;28;20057;-80
2021/05/22 11:16:06;;;;;;;6.38;1.40;;;;;;;25.16;35.75;100158.09;5032315;28;20053;-79
2021/05/22 11:19:10;;;;;;;5.93;1.38;;;;;;;25.17;36.47;100152.38;5034140;28;20052;-78
2021/05/22 11:22:16;;;;;;;3.42;1.20;;;;;;;25.25;36.76;100161.38;5033083;28;20052;-79
2021/05/22 11:25:22;;;;;;;5.07;1.70;;;;;;;25.28;37.14;100156.25;5034251;28;20048;-77
2021/05/22 11:28:26;;;;;;;4.80;1.30;;;;;;;25.31;36.50;100149.44;5044929;28;20060;-76
2021/05/22 11:31:34;;;;;;;3.47;1.10;;;;;;;25.36;36.42;100160.53;5034246;28;20499;-75
2021/05/22 11:34:38;;;;;;;3.47;1.00;;;;;;;25.32;35.43;100165.69;5034118;28;20060;-77
2021/05/22 11:37:43;;;;;;;6.28;1.00;;;;;;;25.32;34.65;100164.84;5034124;28;20048;-76
2021/05/22 11:40:48;;;;;;;8.48;1.20;;;;;;;25.35;34.06;100164.38;5029657;28;20052;-78
2021/05/22 11:44:04;;;;;;;3.30;0.80;;;;;;;25.60;33.30;100162.31;5027307;28;20056;-82
2021/05/22 11:47:09;;;;;;;4.88;1.17;;;;;;;25.66;34.00;100150.34;5034130;28;20056;-80
2021/05/22 11:50:24;;;;;;;22.17;15.27;;;;;;;25.77;34.53;100150.38;5032922;28;20488;-80
2021/05/22 11:53:29;;;;;;;16.90;12.95;;;;;;;25.68;34.17;100153.69;5033262;28;20050;-78
2021/05/22 11:56:36;;;;;;;8.10;2.63;;;;;;;25.75;33.22;100126.94;5033767;28;20399;-80
2021/05/22 11:59:41;;;;;;;6.22;2.00;;;;;;;25.81;33.93;100143.31;5033661;28;20057;-80
2021/05/22 12:02:46;;;;;;;4.05;1.05;;;;;;;25.62;37.05;100143.66;5034344;28;20053;-78
2021/05/22 12:05:51;;;;;;;8.73;1.75;;;;;;;25.00;40.25;100139.53;5025467;28;20460;-79
2021/05/22 12:09:13;;;;;;;6.95;2.70;;;;;;;24.51;41.83;100149.69;5019852;28;20057;-78
2021/05/22 12:12:28;;;;;;;9.00;1.77;;;;;;;24.39;42.32;100156.16;5012806;28;20520;-79
2021/05/22 12:15:33;;;;;;;6.80;1.70;;;;;;;23.81;42.66;100155.66;5025067;28;20520;-79
2021/05/22 12:18:38;;;;;;;7.57;1.30;;;;;;;23.59;43.74;100154.41;5032788;28;20056;-79
2021/05/22 12:21:53;;;;;;;5.53;1.38;;;;;;;23.27;43.73;100172.75;5022179;28;20049;-80
2021/05/22 12:24:58;;;;;;;4.55;1.23;;;;;;;23.33;43.99;100176.50;5013404;28;20054;-79
2021/05/22 12:28:03;;;;;;;11.90;1.95;;;;;;;23.34;42.80;100165.31;5028871;28;20044;-80
2021/05/22 12:31:07;;;;;;;4.78;1.30;;;;;;;23.58;42.41;100166.44;5032862;28;20048;-80
2021/05/22 12:34:11;;;;;;;6.47;1.70;;;;;;;23.73;41.84;100156.78;5036273;28;20045;-80
2021/05/22 12:37:21;;;;;;;5.22;1.23;;;;;;;24.22;41.56;100157.84;5037336;28;20056;-81
2021/05/22 12:40:27;;;;;;;6.57;1.35;;;;;;;24.39;41.29;100147.94;5036342;28;20048;-81
2021/05/22 12:43:45;;;;;;;7.97;1.60;;;;;;;24.65;40.83;100155.81;5036866;28;20064;-80
2021/05/22 12:46:56;;;;;;;5.22;1.38;;;;;;;24.66;40.95;100152.03;5036959;28;20052;-80
2021/05/22 12:50:02;;;;;;;8.15;1.38;;;;;;;24.51;41.24;100129.63;5037024;28;20044;-84
2021/05/22 12:53:07;;;;;;;8.05;1.45;;;;;;;24.10;42.58;100132.19;5036646;28;20068;-81
2021/05/22 12:56:12;;;;;;;7.70;1.52;;;;;;;24.26;43.30;100150.81;5036393;28;20056;-81
2021/05/22 12:59:16;;;;;;;19.85;13.15;;;;;;;23.86;43.81;100161.31;5036619;28;20072;-80
2021/05/22 13:02:28;;;;;;;7.75;2.50;;;;;;;23.27;44.13;100167.25;5036716;28;20050;-80
2021/05/22 13:05:34;;;;;;;8.85;2.03;;;;;;;23.11;45.09;100165.03;5045783;28;20065;-81
2021/05/22 13:08:39;;;;;;;11.05;1.92;;;;;;;22.92;45.19;100175.06;5017109;28;20508;-82
2021/05/22 13:12:03;;;;;;;9.40;2.03;;;;;;;22.58;47.70;100158.97;5016869;28;20053;-78
2021/05/22 13:15:16;;;;;;;22.70;16.42;;;;;;;22.66;49.76;100167.81;5027266;28;20052;-78
2021/05/22 13:18:23;;;;;;;13.27;6.20;;;;;;;22.71;50.16;100163.59;5016873;28;20042;-80
2021/05/22 13:21:32;;;;;;;9.32;3.60;;;;;;;22.69;49.59;100157.50;5017080;28;20045;-80
2021/05/22 13:24:37;;;;;;;11.20;3.15;;;;;;;22.63;49.50;100151.00;5015589;28;20532;-75
2021/05/22 13:28:09;;;;;;;10.65;2.47;;;;;;;22.68;48.80;100132.03;5031561;28;20563;-78
2021/05/22 13:31:17;;;;;;;7.18;1.88;;;;;;;22.75;48.91;100132.81;5034604;28;20048;-76
2021/05/22 13:34:21;;;;;;;7.35;1.90;;;;;;;22.86;48.67;100142.25;5021837;28;20053;-77
2021/05/22 13:37:26;;;;;;;6.68;1.67;;;;;;;23.11;48.72;100137.66;5035209;28;20064;-81
2021/05/22 13:40:41;;;;;;;11.07;1.70;;;;;;;23.22;47.89;100143.28;5034879;28;20120;-77
2021/05/22 13:43:55;;;;;;;6.97;1.63;;;;;;;23.23;47.93;100131.25;5033872;28;20052;-75
2021/05/22 13:47:00;;;;;;;5.72;1.60;;;;;;;23.27;46.92;100143.44;5034482;28;20056;-75
2021/05/22 13:50:07;;;;;;;6.10;1.95;;;;;;;23.31;45.69;100138.34;5032974;28;20040;-78
2021/05/22 13:53:11;;;;;;;19.90;2.25;;;;;;;23.35;45.58;100139.59;5034469;28;20112;-77
2021/05/22 13:56:18;;;;;;;9.20;1.83;;;;;;;23.37;45.74;100140.25;5034557;28;20048;-78
2021/05/22 13:59:22;;;;;;;6.05;1.65;;;;;;;23.44;46.06;100145.66;5015249;28;20044;-77
2021/05/22 14:02:27;;;;;;;8.88;1.75;;;;;;;23.54;46.37;100149.59;5015277;28;20397;-76
2021/05/22 14:05:31;;;;;;;7.32;1.63;;;;;;;23.69;46.33;100147.34;5014879;28;20060;-73
2021/05/22 14:08:37;;;;;;;11.18;1.65;;;;;;;23.82;47.18;100157.38;5029334;28;20044;-78
2021/05/22 14:11:42;;;;;;;12.40;1.98;;;;;;;23.72;45.65;100168.84;5034526;28;20052;-76
2021/05/22 14:14:46;;;;;;;9.15;1.92;;;;;;;23.54;47.85;100166.03;5034497;28;20155;-76
2021/05/22 14:17:51;;;;;;;5.80;2.00;;;;;;;23.37;48.28;100169.53;5034258;28;20041;-77
2021/05/22 14:20:55;;;;;;;5.97;1.75;;;;;;;23.38;47.64;100171.22;5034438;28;20057;-76
2021/05/22 14:23:59;;;;;;;7.95;2.10;;;;;;;23.22;47.79;100180.78;5043583;28;20052;-76
2021/05/22 14:27:05;;;;;;;9.52;1.98;;;;;;;23.06;47.91;100187.59;5014522;28;20049;-78
2021/05/22 14:30:11;;;;;;;5.80;1.90;;;;;;;22.91;48.39;100186.25;5017161;28;20049;-76